createdAt,value
2019-04-07T00:01:45.277Z,9.70
2019-04-07T00:03:50.900Z,9.70
2019-04-07T00:05:56.408Z,9.70
2019-04-07T00:08:02.015Z,9.60
2019-04-07T00:10:09.864Z,9.50
2019-04-07T00:12:16.502Z,9.40
2019-04-07T00:14:22.028Z,9.50
2019-04-07T00:16:27.757Z,9.40
2019-04-07T00:18:33.279Z,9.30
2019-04-07T00:20:38.807Z,9.20
2019-04-07T00:22:44.340Z,9.10
2019-04-07T00:24:49.868Z,9.10
2019-04-07T00:26:55.460Z,9.10
2019-04-07T00:29:01.555Z,9.00
2019-04-07T00:31:07.348Z,9.00
2019-04-07T00:33:13.319Z,9.00
2019-04-07T00:35:26.479Z,9.00
2019-04-07T00:37:26.258Z,8.80
2019-04-07T00:39:32.292Z,8.90
2019-04-07T00:41:38.670Z,9.10
2019-04-07T00:43:45.181Z,9.20
2019-04-07T00:45:50.909Z,9.20
2019-04-07T00:47:56.804Z,9.10
2019-04-07T00:50:02.912Z,9.00
2019-04-07T00:52:10.275Z,9.10
2019-04-07T00:54:35.843Z,9.00
2019-04-07T00:56:41.445Z,9.20
2019-04-07T00:58:47.361Z,9.30
2019-04-07T01:00:53.032Z,9.20
2019-04-07T01:02:59.436Z,9.10
2019-04-07T01:05:07.307Z,9.10
2019-04-07T01:07:12.967Z,9.10
2019-04-07T01:09:18.760Z,9.00
2019-04-07T01:11:24.367Z,9.00
2019-04-07T01:13:29.919Z,9.00
2019-04-07T01:15:35.403Z,9.20
2019-04-07T01:17:40.931Z,9.40
2019-04-07T01:19:46.447Z,9.30
2019-04-07T01:21:51.973Z,9.40
2019-04-07T01:23:57.870Z,9.50
2019-04-07T01:26:03.613Z,9.50
2019-04-07T01:28:09.074Z,9.40
2019-04-07T01:30:15.054Z,9.40
2019-04-07T01:32:20.564Z,9.50
2019-04-07T01:34:26.232Z,9.50
2019-04-07T01:36:31.752Z,9.50
2019-04-07T01:38:37.852Z,9.20
2019-04-07T01:40:45.436Z,9.10
2019-04-07T01:43:02.743Z,9.20
2019-04-07T01:45:12.819Z,9.20
2019-04-07T01:47:28.925Z,9.20
2019-04-07T01:49:51.184Z,9.20
2019-04-07T01:51:58.344Z,9.30
2019-04-07T01:54:05.572Z,9.20
2019-04-07T01:56:12.921Z,9.20
2019-04-07T01:58:23.080Z,9.30
2019-04-07T02:00:30.248Z,9.40
2019-04-07T02:02:53.681Z,9.40
2019-04-07T02:05:05.546Z,9.20
2019-04-07T02:07:12.958Z,9.30
2019-04-07T02:09:32.465Z,9.30
2019-04-07T02:11:39.790Z,9.40
2019-04-07T02:14:03.697Z,9.40
2019-04-07T02:16:11.441Z,9.30
2019-04-07T02:18:18.778Z,9.30
2019-04-07T02:20:46.812Z,9.30
2019-04-07T02:25:19.885Z,8.90
2019-04-07T02:27:27.212Z,8.90
2019-04-07T02:29:37.378Z,8.90
2019-04-07T02:31:56.805Z,8.80
2019-04-07T02:34:07.124Z,8.80
2019-04-07T02:36:23.926Z,8.70
2019-04-07T02:38:34.636Z,8.70
2019-04-07T02:40:45.701Z,8.70
2019-04-07T02:45:28.723Z,8.60
2019-04-07T02:47:35.876Z,8.50
2019-04-07T02:49:47.605Z,8.40
2019-04-07T02:52:00.741Z,8.50
2019-04-07T02:54:10.737Z,8.50
2019-04-07T02:56:29.445Z,8.60
2019-04-07T02:58:49.777Z,8.60
2019-04-07T03:00:57.682Z,8.70
2019-04-07T03:03:21.547Z,8.70
2019-04-07T03:05:40.609Z,8.70
2019-04-07T03:07:56.437Z,8.50
2019-04-07T03:10:04.406Z,8.40
2019-04-07T03:12:15.545Z,8.30
2019-04-07T03:14:26.260Z,8.20
2019-04-07T03:16:33.605Z,8.20
2019-04-07T03:18:44.394Z,8.20
2019-04-07T03:21:08.238Z,8.00
2019-04-07T03:23:28.508Z,8.00
2019-04-07T03:25:42.140Z,8.00
2019-04-07T03:27:52.783Z,8.10
2019-04-07T03:30:20.047Z,8.10
2019-04-07T03:32:33.933Z,8.10
2019-04-07T03:34:44.910Z,8.10
2019-04-07T03:37:19.117Z,8.10
2019-04-07T03:39:20.691Z,8.00
2019-04-07T03:41:29.029Z,7.90
2019-04-07T03:43:36.326Z,7.80
2019-04-07T03:45:49.855Z,7.90
2019-04-07T03:48:00.507Z,7.90
2019-04-07T03:50:18.554Z,7.90
2019-04-07T03:52:26.832Z,7.90
2019-04-07T03:54:52.698Z,7.90
2019-04-07T03:57:16.561Z,8.00
2019-04-07T03:59:33.780Z,7.90
2019-04-07T04:01:53.934Z,8.00
2019-04-07T04:04:02.182Z,7.90
2019-04-07T04:06:25.963Z,8.00
2019-04-07T04:08:48.993Z,8.00
2019-04-07T04:10:56.720Z,7.90
2019-04-07T04:13:05.052Z,8.00
2019-04-07T04:15:12.671Z,8.10
2019-04-07T04:17:18.383Z,8.20
2019-04-07T04:19:24.704Z,8.10
2019-04-07T04:21:30.899Z,8.10
2019-04-07T04:23:36.554Z,8.10
2019-04-07T04:25:42.907Z,8.20
2019-04-07T04:27:48.735Z,8.20
2019-04-07T04:29:55.212Z,8.10
2019-04-07T04:32:01.547Z,8.00
2019-04-07T04:34:07.207Z,8.10
2019-04-07T04:36:13.538Z,8.20
2019-04-07T04:38:20.073Z,8.30
2019-04-07T04:40:25.677Z,8.30
2019-04-07T04:42:31.285Z,8.30
2019-04-07T04:44:36.775Z,8.20
2019-04-07T04:46:42.673Z,8.20
2019-04-07T04:48:48.979Z,8.10
2019-04-07T04:50:55.971Z,8.10
2019-04-07T04:53:02.057Z,8.10
2019-04-07T04:55:07.724Z,8.00
2019-04-07T04:57:13.256Z,8.10
2019-04-07T04:59:18.769Z,8.10
2019-04-07T05:01:24.324Z,8.10
2019-04-07T05:03:30.462Z,8.10
2019-04-07T05:05:36.754Z,8.00
2019-04-07T05:07:54.118Z,8.00
2019-04-07T05:09:52.844Z,8.00
2019-04-07T05:11:56.592Z,8.00
2019-04-07T05:14:02.155Z,8.00
2019-04-07T05:16:08.280Z,8.10
2019-04-07T05:18:14.321Z,8.10
2019-04-07T05:20:20.326Z,8.10
2019-04-07T05:22:26.808Z,8.00
2019-04-07T05:24:32.348Z,8.00
2019-04-07T05:26:50.112Z,8.00
2019-04-07T05:28:55.653Z,8.00
2019-04-07T05:31:01.164Z,8.00
2019-04-07T05:33:06.681Z,8.00
2019-04-07T05:35:12.279Z,8.00
2019-04-07T05:37:17.826Z,8.10
2019-04-07T05:39:24.074Z,8.10
2019-04-07T05:41:31.208Z,8.10
2019-04-07T05:43:36.972Z,8.10
2019-04-07T05:45:43.356Z,8.10
2019-04-07T05:47:50.786Z,8.20
2019-04-07T05:49:58.731Z,8.40
2019-04-07T05:52:05.690Z,8.60
2019-04-07T05:54:12.300Z,8.80
2019-04-07T05:56:18.555Z,9.10
2019-04-07T05:58:24.301Z,9.10
2019-04-07T06:00:29.857Z,9.10
2019-04-07T06:02:35.427Z,9.10
2019-04-07T06:04:41.545Z,9.00
2019-04-07T06:06:51.143Z,9.00
2019-04-07T06:08:55.048Z,9.00
2019-04-07T06:11:02.320Z,9.10
2019-04-07T06:13:11.276Z,9.10
2019-04-07T06:15:21.280Z,9.00
2019-04-07T06:17:25.920Z,9.10
2019-04-07T06:19:30.380Z,9.20
2019-04-07T06:21:36.641Z,9.30
2019-04-07T06:23:42.256Z,9.40
2019-04-07T06:25:47.761Z,9.50
2019-04-07T06:27:53.350Z,9.60
2019-04-07T06:30:00.051Z,9.90
2019-04-07T06:32:09.771Z,10.10
2019-04-07T06:34:13.699Z,10.40
2019-04-07T06:36:20.273Z,10.60
2019-04-07T06:38:33.670Z,10.70
2019-04-07T06:40:33.766Z,10.70
2019-04-07T06:42:40.473Z,10.50
2019-04-07T06:44:46.228Z,10.60
2019-04-07T06:47:11.853Z,10.60
2019-04-07T06:49:37.072Z,10.60
2019-04-07T06:52:02.042Z,10.40
2019-04-07T06:54:07.847Z,10.30
2019-04-07T06:56:20.870Z,10.40
2019-04-07T06:58:45.019Z,10.40
2019-04-07T07:01:11.064Z,10.60
2019-04-07T07:03:19.081Z,11.10
2019-04-07T07:05:38.792Z,11.60
2019-04-07T07:08:02.442Z,11.60
2019-04-07T07:10:11.368Z,11.90
2019-04-07T07:12:32.282Z,11.90
2019-04-07T07:14:50.709Z,12.10
2019-04-07T07:17:16.998Z,12.20
2019-04-07T07:19:39.236Z,12.50
2019-04-07T07:22:06.476Z,13.00
2019-04-07T07:24:10.433Z,13.30
2019-04-07T07:26:16.038Z,13.40
2019-04-07T07:28:21.532Z,13.70
2019-04-07T07:30:27.200Z,13.80
2019-04-07T07:32:35.554Z,13.80
2019-04-07T07:34:42.121Z,13.90
2019-04-07T07:36:49.833Z,14.20
2019-04-07T07:38:59.064Z,14.60
2019-04-07T07:41:03.336Z,14.80
2019-04-07T07:43:08.661Z,14.60
2019-04-07T07:45:14.216Z,14.60
2019-04-07T07:47:20.839Z,14.80
2019-04-07T07:49:28.135Z,14.60
2019-04-07T07:51:34.947Z,14.80
2019-04-07T07:53:41.554Z,15.20
2019-04-07T07:55:47.660Z,15.10
2019-04-07T07:57:56.768Z,15.10
2019-04-07T08:00:00.442Z,15.40
2019-04-07T08:02:07.625Z,15.80
2019-04-07T08:04:13.949Z,16.20
2019-04-07T08:06:19.499Z,16.30
2019-04-07T08:08:25.420Z,16.60
2019-04-07T08:10:30.953Z,16.80
2019-04-07T08:12:36.474Z,17.20
2019-04-07T08:14:42.568Z,17.50
2019-04-07T08:16:48.973Z,17.50
2019-04-07T08:18:55.668Z,17.90
2019-04-07T08:21:02.190Z,17.70
2019-04-07T08:23:07.894Z,17.50
2019-04-07T08:25:14.139Z,17.10
2019-04-07T08:27:20.508Z,17.20
2019-04-07T08:29:26.910Z,17.40
2019-04-07T08:31:32.703Z,17.60
2019-04-07T08:33:38.582Z,17.60
2019-04-07T08:35:44.080Z,17.80
2019-04-07T08:37:50.061Z,18.20
2019-04-07T08:39:57.005Z,18.50
2019-04-07T08:42:06.602Z,18.20
2019-04-07T08:44:10.493Z,18.20
2019-04-07T08:46:16.392Z,18.40
2019-04-07T08:48:21.931Z,18.50
2019-04-07T08:50:28.628Z,18.70
2019-04-07T08:52:34.388Z,18.60
2019-04-07T08:54:39.912Z,18.50
2019-04-07T08:56:45.746Z,18.50
2019-04-07T08:58:52.127Z,18.50
2019-04-07T09:00:58.520Z,18.00
2019-04-07T09:03:10.574Z,18.20
2019-04-07T09:05:11.696Z,18.40
2019-04-07T09:07:17.543Z,18.40
2019-04-07T09:09:32.623Z,18.50
2019-04-07T09:11:32.112Z,18.60
2019-04-07T09:13:38.479Z,18.20
2019-04-07T09:15:55.536Z,17.60
2019-04-07T09:18:03.319Z,17.10
2019-04-07T09:20:13.542Z,17.10
2019-04-07T09:22:31.607Z,16.90
2019-04-07T09:24:55.126Z,16.40
2019-04-07T09:27:18.229Z,16.20
2019-04-07T09:29:39.797Z,16.20
2019-04-07T09:31:53.018Z,16.10
2019-04-07T09:34:00.148Z,16.10
2019-04-07T09:36:16.935Z,16.10
2019-04-07T09:38:29.785Z,15.90
2019-04-07T09:40:48.230Z,15.60
2019-04-07T09:43:01.262Z,15.60
2019-04-07T09:45:26.464Z,15.70
2019-04-07T09:47:47.757Z,15.60
2019-04-07T09:49:58.316Z,15.50
2019-04-07T09:52:11.773Z,15.40
2019-04-07T09:54:29.628Z,15.30
2019-04-07T09:59:22.847Z,15.10
2019-04-07T10:01:32.933Z,14.90
2019-04-07T10:03:42.617Z,14.70
2019-04-07T10:05:55.700Z,14.80
2019-04-07T10:08:05.615Z,14.90
2019-04-07T10:12:52.831Z,14.80
2019-04-07T10:15:16.643Z,14.70
2019-04-07T10:17:26.221Z,14.80
2019-04-07T10:19:49.998Z,14.90
2019-04-07T10:21:57.188Z,14.70
2019-04-07T10:24:05.195Z,14.40
2019-04-07T10:26:15.832Z,14.30
2019-04-07T10:28:40.083Z,14.40
2019-04-07T10:30:56.597Z,14.40
2019-04-07T10:33:06.728Z,14.50
2019-04-07T10:35:16.864Z,14.30
2019-04-07T10:37:30.250Z,14.30
2019-04-07T10:39:43.448Z,14.80
2019-04-07T10:42:05.542Z,15.20
2019-04-07T10:44:16.120Z,15.70
2019-04-07T10:46:39.825Z,16.40
2019-04-07T10:49:04.301Z,16.80
2019-04-07T10:51:12.165Z,17.00
2019-04-07T10:53:22.722Z,17.30
2019-04-07T10:55:45.300Z,17.30
2019-04-07T10:57:52.489Z,17.50
2019-04-07T10:59:59.656Z,17.10
2019-04-07T11:02:23.772Z,17.10
2019-04-07T11:04:47.421Z,17.30
2019-04-07T11:07:04.109Z,17.20
2019-04-07T11:09:28.376Z,16.80
2019-04-07T11:11:49.090Z,16.50
2019-04-07T11:14:09.615Z,16.20
2019-04-07T11:16:35.109Z,16.00
2019-04-07T11:18:58.639Z,15.90
2019-04-07T11:21:05.895Z,15.60
2019-04-07T11:23:13.107Z,15.50
2019-04-07T11:25:20.708Z,15.00
2019-04-07T11:27:33.335Z,15.00
2019-04-07T11:29:43.626Z,15.10
2019-04-07T11:31:54.951Z,15.30
2019-04-07T11:34:02.104Z,15.50
2019-04-07T11:36:09.459Z,15.90
2019-04-07T11:38:25.668Z,16.10
2019-04-07T11:40:45.889Z,16.30
2019-04-07T11:43:02.234Z,16.80
2019-04-07T11:45:13.808Z,17.10
2019-04-07T11:47:33.959Z,17.40
2019-04-07T11:49:57.174Z,17.40
2019-04-07T11:52:10.455Z,17.40
2019-04-07T11:54:20.352Z,16.80
2019-04-07T11:56:40.139Z,16.80
2019-04-07T11:59:03.521Z,16.70
2019-04-07T12:01:22.956Z,16.60
2019-04-07T12:03:39.862Z,16.30
2019-04-07T12:05:48.431Z,16.10
2019-04-07T12:08:12.005Z,16.10
2019-04-07T12:10:19.151Z,15.90
2019-04-07T12:12:38.658Z,15.50
2019-04-07T12:14:57.804Z,15.90
2019-04-07T12:19:40.229Z,16.70
2019-04-07T12:21:48.059Z,17.20
2019-04-07T12:24:13.768Z,17.50
2019-04-07T12:26:20.970Z,17.50
2019-04-07T12:28:28.249Z,17.40
2019-04-07T12:30:35.866Z,17.10
2019-04-07T12:32:49.805Z,17.30
2019-04-07T12:35:17.190Z,17.30
2019-04-07T12:37:39.299Z,17.20
2019-04-07T12:39:51.991Z,17.30
2019-04-07T12:42:16.733Z,17.20
2019-04-07T12:44:39.805Z,17.30
2019-04-07T12:46:50.906Z,17.20
2019-04-07T12:49:06.737Z,17.30
2019-04-07T12:51:19.869Z,17.10
2019-04-07T12:53:33.472Z,16.80
2019-04-07T12:55:46.922Z,17.00
2019-04-07T12:57:52.756Z,17.20
2019-04-07T13:00:09.185Z,17.30
2019-04-07T13:02:28.517Z,17.40
2019-04-07T13:04:50.591Z,17.10
2019-04-07T13:07:03.822Z,17.00
2019-04-07T13:09:31.489Z,16.90
2019-04-07T13:11:55.811Z,17.20
2019-04-07T13:14:06.174Z,17.50
2019-04-07T13:16:28.214Z,17.60
2019-04-07T13:18:52.177Z,17.50
2019-04-07T13:21:03.299Z,17.30
2019-04-07T13:23:13.615Z,16.80
2019-04-07T13:25:29.189Z,17.10
2019-04-07T13:27:38.954Z,17.30
2019-04-07T13:29:54.339Z,17.50
2019-04-07T13:32:01.525Z,17.30
2019-04-07T13:34:24.858Z,16.70
2019-04-07T13:36:40.982Z,16.40
2019-04-07T13:38:54.540Z,16.50
2019-04-07T13:41:04.604Z,16.00
2019-04-07T13:43:31.163Z,16.00
2019-04-07T13:45:55.843Z,16.20
2019-04-07T13:48:06.190Z,16.30
2019-04-07T13:50:16.519Z,16.40
2019-04-07T13:52:23.637Z,16.20
2019-04-07T13:54:37.235Z,16.20
2019-04-07T13:57:00.617Z,16.20
2019-04-07T13:59:24.611Z,16.10
2019-04-07T14:01:44.036Z,16.10
2019-04-07T14:04:02.837Z,16.10
2019-04-07T14:06:14.706Z,16.10
2019-04-07T14:08:33.444Z,16.10
2019-04-07T14:10:59.310Z,16.30
2019-04-07T14:13:12.494Z,16.30
2019-04-07T14:15:35.922Z,16.20
2019-04-07T14:18:00.106Z,16.10
2019-04-07T14:20:11.613Z,16.10
2019-04-07T14:22:34.297Z,16.20
2019-04-07T14:24:44.974Z,16.00
2019-04-07T14:27:07.588Z,16.20
2019-04-07T14:29:17.424Z,16.20
2019-04-07T14:31:28.230Z,16.30
2019-04-07T14:33:50.737Z,16.20
2019-04-07T14:35:58.248Z,16.20
2019-04-07T14:38:05.529Z,16.10
2019-04-07T14:40:12.871Z,16.10
2019-04-07T14:42:20.020Z,16.00
2019-04-07T14:44:36.948Z,16.00
2019-04-07T14:46:47.053Z,16.00
2019-04-07T14:48:56.934Z,16.00
2019-04-07T14:51:07.199Z,16.10
2019-04-07T14:53:30.541Z,16.10
2019-04-07T14:55:43.456Z,16.10
2019-04-07T14:58:02.419Z,16.00
2019-04-07T15:00:26.926Z,16.00
2019-04-07T15:02:32.243Z,16.10
2019-04-07T15:04:54.389Z,15.90
2019-04-07T15:07:06.901Z,15.80
2019-04-07T15:09:13.773Z,15.90
2019-04-07T15:11:23.775Z,16.00
2019-04-07T15:13:29.961Z,16.10
2019-04-07T15:15:35.706Z,16.20
2019-04-07T15:17:41.318Z,16.20
2019-04-07T15:19:47.347Z,16.10
2019-04-07T15:21:54.955Z,16.10
2019-04-07T15:24:04.052Z,15.90
2019-04-07T15:26:07.767Z,15.70
2019-04-07T15:28:14.198Z,15.60
2019-04-07T15:30:20.282Z,15.40
2019-04-07T15:32:28.495Z,15.40
2019-04-07T15:34:33.166Z,15.20
2019-04-07T15:36:38.684Z,15.30
2019-04-07T15:38:44.296Z,15.20
2019-04-07T15:40:50.577Z,15.20
2019-04-07T15:42:56.898Z,15.20
2019-04-07T15:45:02.550Z,15.20
2019-04-07T15:47:09.255Z,15.30
2019-04-07T15:49:14.937Z,15.30
2019-04-07T15:51:20.480Z,15.20
2019-04-07T15:53:26.014Z,15.20
2019-04-07T15:55:46.420Z,15.20
2019-04-07T15:57:38.748Z,15.20
2019-04-07T15:59:44.997Z,15.20
2019-04-07T16:01:50.993Z,15.20
2019-04-07T16:03:57.099Z,15.30
2019-04-07T16:06:03.436Z,15.30
2019-04-07T16:08:11.242Z,15.40
2019-04-07T16:10:18.707Z,15.30
2019-04-07T16:12:24.096Z,15.20
2019-04-07T16:14:29.824Z,15.20
2019-04-07T16:16:36.072Z,15.20
2019-04-07T16:18:43.420Z,15.20
2019-04-07T16:20:49.562Z,15.20
2019-04-07T16:22:55.490Z,15.10
2019-04-07T16:25:01.795Z,15.30
2019-04-07T16:27:08.984Z,15.20
2019-04-07T16:29:17.052Z,15.10
2019-04-07T16:31:24.175Z,15.20
2019-04-07T16:33:32.551Z,15.20
2019-04-07T16:35:36.540Z,15.20
2019-04-07T16:37:42.178Z,15.20
2019-04-07T16:39:47.699Z,15.10
2019-04-07T16:41:53.429Z,15.10
2019-04-07T16:43:58.997Z,15.00
2019-04-07T16:46:05.535Z,14.90
2019-04-07T16:48:12.866Z,14.80
2019-04-07T16:50:20.390Z,14.80
2019-04-07T16:52:28.550Z,14.80
2019-04-07T16:54:34.132Z,14.70
2019-04-07T16:56:40.224Z,14.60
2019-04-07T16:58:46.909Z,14.60
2019-04-07T17:00:52.561Z,14.50
2019-04-07T17:02:58.266Z,14.40
2019-04-07T17:05:05.512Z,14.20
2019-04-07T17:07:15.312Z,14.10
2019-04-07T17:09:22.797Z,14.10
2019-04-07T17:11:26.660Z,14.00
2019-04-07T17:13:38.593Z,13.90
2019-04-07T17:15:40.937Z,13.90
2019-04-07T17:17:51.352Z,13.80
2019-04-07T17:19:57.481Z,13.70
2019-04-07T17:22:01.788Z,13.60
2019-04-07T17:24:07.671Z,13.50
2019-04-07T17:26:13.703Z,13.40
2019-04-07T17:28:19.521Z,13.30
2019-04-07T17:30:26.202Z,13.20
2019-04-07T17:32:35.492Z,13.10
2019-04-07T17:34:41.711Z,13.00
2019-04-07T17:36:50.681Z,13.00
2019-04-07T17:39:05.426Z,12.90
2019-04-07T17:41:14.280Z,12.80
2019-04-07T17:43:27.056Z,12.70
2019-04-07T17:45:30.932Z,12.70
2019-04-07T17:47:52.837Z,12.60
2019-04-07T17:50:12.619Z,12.60
2019-04-07T17:52:20.773Z,12.60
2019-04-07T17:54:44.230Z,12.60
2019-04-07T17:56:53.882Z,12.60
2019-04-07T17:59:13.153Z,12.60
2019-04-07T18:01:35.752Z,12.70
2019-04-07T18:03:47.108Z,12.90
2019-04-07T18:06:11.211Z,12.80
2019-04-07T18:08:18.507Z,12.80
2019-04-07T18:10:41.909Z,12.90
2019-04-07T18:13:01.098Z,12.80
2019-04-07T18:15:10.681Z,12.70
2019-04-07T18:17:33.461Z,12.70
2019-04-07T18:19:43.592Z,12.60
2019-04-07T18:22:03.226Z,12.70
2019-04-07T18:24:22.803Z,12.60
2019-04-07T18:26:38.733Z,12.60
2019-04-07T18:28:54.996Z,12.60
2019-04-07T18:31:11.683Z,12.70
2019-04-07T18:33:20.695Z,12.60
2019-04-07T18:35:43.168Z,12.60
2019-04-07T18:37:56.469Z,12.60
2019-04-07T18:40:19.981Z,12.60
2019-04-07T18:42:33.082Z,12.60
2019-04-07T18:47:23.884Z,12.60
2019-04-07T18:49:33.698Z,12.60
2019-04-07T18:51:47.233Z,12.60
2019-04-07T18:54:10.896Z,12.60
2019-04-07T18:56:23.496Z,12.50
2019-04-07T18:58:31.193Z,12.50
2019-04-07T19:00:39.195Z,12.50
2019-04-07T19:02:52.565Z,12.40
2019-04-07T19:05:05.786Z,12.40
2019-04-07T19:07:30.454Z,12.40
2019-04-07T19:09:41.116Z,12.30
2019-04-07T19:11:48.716Z,12.30
2019-04-07T19:14:26.103Z,12.30
2019-04-07T19:16:19.109Z,12.20
2019-04-07T19:18:32.559Z,12.20
2019-04-07T19:20:56.068Z,12.10
2019-04-07T19:23:04.330Z,12.20
2019-04-07T19:25:17.576Z,12.10
2019-04-07T19:27:41.069Z,12.10
2019-04-07T19:29:51.258Z,12.10
2019-04-07T19:32:07.996Z,12.00
2019-04-07T19:34:30.081Z,12.00
2019-04-07T19:36:48.250Z,12.00
2019-04-07T19:38:59.115Z,12.00
2019-04-07T19:41:24.426Z,11.90
2019-04-07T19:43:37.564Z,12.00
2019-04-07T19:45:54.882Z,11.90
2019-04-07T19:48:04.039Z,11.80
2019-04-07T19:50:27.138Z,11.80
2019-04-07T19:52:37.178Z,11.80
2019-04-07T19:57:13.349Z,11.70
2019-04-07T20:04:12.936Z,11.70
2019-04-07T20:06:24.800Z,11.70
2019-04-07T20:08:37.657Z,11.70
2019-04-07T20:11:03.122Z,11.50
2019-04-07T20:13:26.744Z,11.30
2019-04-07T20:15:46.087Z,11.20
2019-04-07T20:17:58.998Z,11.00
2019-04-07T20:20:13.992Z,10.90
2019-04-07T20:22:39.463Z,10.80
2019-04-07T20:25:03.126Z,10.60
2019-04-07T20:27:22.711Z,10.60
2019-04-07T20:29:33.841Z,10.60
2019-04-07T20:31:53.492Z,10.50
2019-04-07T20:34:03.936Z,10.40
2019-04-07T20:36:15.020Z,10.30
2019-04-07T20:38:19.704Z,10.40
2019-04-07T20:40:45.460Z,10.50
2019-04-07T20:42:53.167Z,10.60
2019-04-07T20:45:06.601Z,10.70
2019-04-07T20:47:26.678Z,10.80
2019-04-07T20:49:51.642Z,10.70
2019-04-07T20:51:59.031Z,10.80
2019-04-07T20:54:21.606Z,10.80
2019-04-07T20:59:04.641Z,10.70
2019-04-07T21:01:12.969Z,10.70
2019-04-07T21:03:33.979Z,10.70
2019-04-07T21:05:42.043Z,10.60
2019-04-07T21:07:49.299Z,10.40
2019-04-07T21:10:12.570Z,10.30
2019-04-07T21:12:19.740Z,10.20
2019-04-07T21:14:43.186Z,10.10
2019-04-07T21:16:50.969Z,10.00
2019-04-07T21:19:13.375Z,9.90
2019-04-07T21:21:26.745Z,9.80
2019-04-07T21:23:50.876Z,9.80
2019-04-07T21:26:07.885Z,9.70
2019-04-07T21:28:16.034Z,9.70
2019-04-07T21:30:23.227Z,9.50
2019-04-07T21:32:31.245Z,9.50
2019-04-07T21:34:51.531Z,9.50
2019-04-07T21:37:04.782Z,9.50
2019-04-07T21:39:12.074Z,9.40
2019-04-07T21:41:22.612Z,9.30
2019-04-07T21:43:32.875Z,9.20
2019-04-07T21:45:45.843Z,9.10
2019-04-07T21:47:53.072Z,9.00
2019-04-07T21:50:07.477Z,9.00
2019-04-07T21:52:24.574Z,8.90
2019-04-07T21:54:44.062Z,8.80
2019-04-07T21:56:54.385Z,8.80
2019-04-07T21:59:10.793Z,8.70
2019-04-07T22:01:18.684Z,8.80
2019-04-07T22:03:35.260Z,8.70
2019-04-07T22:05:56.389Z,8.70
2019-04-07T22:08:13.091Z,8.60
2019-04-07T22:10:13.706Z,8.60
2019-04-07T22:12:19.497Z,8.50
2019-04-07T22:14:26.427Z,8.50
2019-04-07T22:16:33.104Z,8.50
2019-04-07T22:18:39.468Z,8.40
2019-04-07T22:20:45.367Z,8.30
2019-04-07T22:22:51.315Z,8.30
2019-04-07T22:24:56.935Z,8.30
2019-04-07T22:27:04.587Z,8.40
2019-04-07T22:29:09.806Z,8.30
2019-04-07T22:31:16.977Z,8.30
2019-04-07T22:33:25.605Z,8.30
2019-04-07T22:35:30.351Z,8.30
2019-04-07T22:37:36.029Z,8.20
2019-04-07T22:39:41.798Z,8.20
2019-04-07T22:41:48.297Z,8.10
2019-04-07T22:43:54.042Z,8.10
2019-04-07T22:46:08.712Z,8.10
2019-04-07T22:48:14.181Z,8.10
2019-04-07T22:50:21.270Z,8.10
2019-04-07T22:52:27.819Z,8.00
2019-04-07T22:54:33.543Z,8.10
2019-04-07T22:56:39.893Z,8.10
2019-04-07T22:58:46.531Z,8.10
2019-04-07T23:00:52.244Z,8.00
2019-04-07T23:02:57.932Z,7.90
2019-04-07T23:05:03.453Z,8.00
2019-04-07T23:07:09.005Z,7.90
2019-04-07T23:09:15.484Z,7.90
2019-04-07T23:11:21.150Z,7.90
2019-04-07T23:13:26.721Z,7.80
2019-04-07T23:15:40.141Z,7.80
2019-04-07T23:17:39.813Z,7.80
2019-04-07T23:19:46.253Z,7.90
2019-04-07T23:21:51.864Z,7.90
2019-04-07T23:23:57.718Z,7.90
2019-04-07T23:26:03.356Z,7.90
2019-04-07T23:28:08.886Z,7.90
2019-04-07T23:30:17.285Z,8.00
2019-04-07T23:32:23.986Z,8.00
2019-04-07T23:34:29.706Z,8.00
2019-04-07T23:36:36.121Z,8.00
2019-04-07T23:38:41.700Z,7.90
2019-04-07T23:40:48.176Z,8.00
2019-04-07T23:42:53.763Z,8.00
2019-04-07T23:44:59.309Z,8.00
2019-04-07T23:47:06.852Z,8.00
2019-04-07T23:49:13.123Z,7.90
2019-04-07T23:51:18.797Z,7.90
2019-04-07T23:56:18.335Z,8.00
2019-04-07T23:58:23.847Z,7.90
